createdAt,value
2022-09-21T00:01:33.273Z,3.72
2022-09-21T00:04:03.098Z,4.03
2022-09-21T00:06:34.543Z,4.13
2022-09-21T00:09:04.981Z,4.38
2022-09-21T00:11:34.363Z,4.22
2022-09-21T00:14:07.111Z,3.80
2022-09-21T00:16:35.286Z,4.00
2022-09-21T00:19:03.850Z,3.72
2022-09-21T00:21:33.230Z,4.20
2022-09-21T00:24:02.490Z,4.82
2022-09-21T00:26:32.846Z,4.35
2022-09-21T00:29:03.292Z,3.90
2022-09-21T00:31:31.998Z,3.50
2022-09-21T00:34:03.830Z,3.50
2022-09-21T00:36:34.447Z,3.60
2022-09-21T00:39:04.127Z,3.30
2022-09-21T00:41:34.473Z,3.55
2022-09-21T00:44:31.858Z,3.90
2022-09-21T00:47:04.632Z,3.90
2022-09-21T00:49:35.094Z,3.65
2022-09-21T00:52:06.768Z,4.00
2022-09-21T00:54:39.157Z,3.45
2022-09-21T00:57:08.170Z,3.80
2022-09-21T00:59:38.816Z,4.35
2022-09-21T01:02:07.162Z,3.92
2022-09-21T01:04:36.325Z,4.28
2022-09-21T01:07:07.555Z,4.60
2022-09-21T01:09:36.119Z,4.43
2022-09-21T01:12:13.436Z,4.38
2022-09-21T01:14:54.764Z,4.05
2022-09-21T01:17:29.624Z,4.63
2022-09-21T01:20:22.042Z,4.70
2022-09-21T01:23:06.671Z,4.30
2022-09-21T01:25:40.236Z,4.83
2022-09-21T01:28:24.083Z,4.22
2022-09-21T01:30:54.229Z,4.63
2022-09-21T01:33:26.542Z,4.93
2022-09-21T01:35:58.119Z,5.00
2022-09-21T01:38:28.992Z,5.90
2022-09-21T01:41:00.228Z,4.47
2022-09-21T01:43:33.114Z,4.97
2022-09-21T01:46:04.343Z,4.50
2022-09-21T01:48:35.300Z,4.15
2022-09-21T01:51:05.408Z,4.30
2022-09-21T01:53:34.912Z,4.07
2022-09-21T01:56:07.638Z,4.32
2022-09-21T01:58:40.180Z,5.18
2022-09-21T02:01:13.914Z,4.95
2022-09-21T02:03:46.353Z,4.65
2022-09-21T02:06:14.746Z,5.50
2022-09-21T02:08:42.394Z,4.93
2022-09-21T02:11:12.854Z,4.93
2022-09-21T02:14:42.133Z,5.35
2022-09-21T02:17:19.166Z,5.97
2022-09-21T02:19:54.260Z,5.80
2022-09-21T02:22:29.648Z,5.55
2022-09-21T02:25:05.341Z,5.15
2022-09-21T02:27:36.967Z,5.18
2022-09-21T02:30:09.095Z,5.25
2022-09-21T02:32:50.492Z,4.85
2022-09-21T02:35:30.541Z,5.30
2022-09-21T02:38:07.545Z,5.10
2022-09-21T02:40:40.456Z,4.80
2022-09-21T02:43:12.060Z,5.35
2022-09-21T02:45:45.354Z,5.03
2022-09-21T02:48:16.840Z,5.32
2022-09-21T02:50:46.474Z,5.60
2022-09-21T02:53:18.161Z,5.43
2022-09-21T02:55:47.295Z,5.28
2022-09-21T02:58:18.049Z,5.10
2022-09-21T03:00:45.860Z,4.80
2022-09-21T03:03:22.071Z,5.03
2022-09-21T03:05:51.576Z,5.57
2022-09-21T03:08:19.836Z,5.75
2022-09-21T03:10:50.858Z,6.67
2022-09-21T03:13:19.587Z,5.88
2022-09-21T03:15:48.461Z,6.05
2022-09-21T03:18:16.087Z,5.78
2022-09-21T03:20:48.016Z,5.65
2022-09-21T03:23:16.487Z,5.90
2022-09-21T03:25:45.269Z,5.75
2022-09-21T03:28:13.593Z,5.72
2022-09-21T03:30:41.837Z,5.82
2022-09-21T03:33:10.227Z,5.97
2022-09-21T03:35:39.393Z,5.93
2022-09-21T03:38:08.596Z,6.07
2022-09-21T03:40:36.361Z,6.80
2022-09-21T03:43:04.871Z,6.33
2022-09-21T03:45:33.547Z,6.10
2022-09-21T03:48:02.635Z,6.28
2022-09-21T03:50:30.505Z,6.55
2022-09-21T03:52:58.724Z,6.35
2022-09-21T03:55:28.068Z,6.70
2022-09-21T03:57:55.671Z,6.32
2022-09-21T04:00:24.887Z,6.78
2022-09-21T04:02:53.721Z,6.07
2022-09-21T04:05:21.837Z,6.55
2022-09-21T04:07:50.072Z,6.47
2022-09-21T04:10:21.569Z,6.80
2022-09-21T04:12:52.226Z,6.18
2022-09-21T04:15:20.518Z,6.18
2022-09-21T04:17:48.596Z,6.47
2022-09-21T04:20:16.710Z,6.50
2022-09-21T04:22:44.893Z,6.40
2022-09-21T04:25:13.126Z,6.85
2022-09-21T04:27:41.542Z,6.90
2022-09-21T04:30:13.436Z,6.88
2022-09-21T04:32:41.593Z,7.40
2022-09-21T04:35:10.639Z,7.50
2022-09-21T04:37:40.516Z,7.65
2022-09-21T04:40:10.578Z,8.23
2022-09-21T04:42:38.805Z,8.40
2022-09-21T04:45:08.392Z,8.00
2022-09-21T04:47:37.745Z,7.95
2022-09-21T04:50:06.539Z,8.07
2022-09-21T04:52:34.497Z,7.47
2022-09-21T04:55:02.102Z,7.07
2022-09-21T04:57:30.582Z,7.30
2022-09-21T04:59:58.235Z,8.82
2022-09-21T05:02:27.189Z,7.32
2022-09-21T05:04:56.496Z,7.78
2022-09-21T05:07:24.117Z,9.32
2022-09-21T05:10:09.502Z,8.80
2022-09-21T05:12:40.870Z,7.47
2022-09-21T05:15:10.581Z,7.88
2022-09-21T05:17:38.312Z,7.00
2022-09-21T05:20:08.446Z,6.35
2022-09-21T05:22:36.319Z,6.35
2022-09-21T05:25:04.405Z,8.23
2022-09-21T05:27:32.068Z,7.28
2022-09-21T05:30:00.343Z,7.60
2022-09-21T05:32:31.400Z,6.82
2022-09-21T05:35:08.697Z,6.60
2022-09-21T05:37:48.546Z,8.18
2022-09-21T05:40:17.234Z,9.02
2022-09-21T05:42:45.827Z,9.57
2022-09-21T05:45:19.104Z,9.10
2022-09-21T05:47:54.366Z,10.67
2022-09-21T05:50:35.442Z,9.13
2022-09-21T05:53:17.185Z,8.73
2022-09-21T05:55:52.632Z,10.10
2022-09-21T05:58:24.165Z,8.55
2022-09-21T06:00:59.692Z,7.63
2022-09-21T06:03:29.532Z,8.60
2022-09-21T06:05:59.189Z,7.68
2022-09-21T06:08:28.200Z,7.22
2022-09-21T06:10:56.593Z,6.63
2022-09-21T06:13:24.441Z,7.10
2022-09-21T06:15:51.998Z,6.82
2022-09-21T06:18:20.187Z,6.93
2022-09-21T06:20:48.070Z,6.13
2022-09-21T06:23:18.149Z,6.47
2022-09-21T06:25:45.986Z,6.75
2022-09-21T06:28:14.304Z,6.28
2022-09-21T06:30:44.830Z,6.47
2022-09-21T06:33:12.960Z,6.90
2022-09-21T06:35:40.747Z,7.00
2022-09-21T06:38:09.183Z,6.70
2022-09-21T06:40:41.615Z,7.15
2022-09-21T06:43:10.289Z,7.38
2022-09-21T06:45:38.166Z,7.60
2022-09-21T06:48:06.963Z,7.57
2022-09-21T06:50:39.918Z,6.97
2022-09-21T06:53:08.895Z,7.50
2022-09-21T06:55:36.555Z,6.35
2022-09-21T06:58:09.382Z,6.82
2022-09-21T07:00:37.474Z,7.00
2022-09-21T07:03:05.523Z,6.45
2022-09-21T07:05:33.610Z,6.45
2022-09-21T07:08:02.225Z,6.20
2022-09-21T07:10:30.352Z,7.07
2022-09-21T07:13:03.642Z,6.97
2022-09-21T07:15:33.699Z,7.25
2022-09-21T07:18:08.462Z,6.88
2022-09-21T07:20:39.243Z,7.10
2022-09-21T07:23:11.545Z,7.00
2022-09-21T07:25:39.753Z,7.13
2022-09-21T07:28:07.740Z,8.00
2022-09-21T07:30:38.504Z,8.05
2022-09-21T07:33:08.201Z,7.27
2022-09-21T07:35:36.739Z,7.20
2022-09-21T07:38:06.464Z,7.75
2022-09-21T07:40:35.607Z,6.80
2022-09-21T07:43:05.004Z,6.65
2022-09-21T07:45:32.763Z,6.85
2022-09-21T07:48:05.358Z,7.93
2022-09-21T07:50:34.082Z,8.38
2022-09-21T07:53:03.319Z,8.10
2022-09-21T07:55:31.733Z,8.23
2022-09-21T07:58:17.329Z,7.95
2022-09-21T08:00:45.293Z,7.28
2022-09-21T08:03:14.475Z,8.10
2022-09-21T08:05:42.426Z,7.65
2022-09-21T08:08:10.600Z,7.82
2022-09-21T08:10:39.449Z,8.10
2022-09-21T08:13:07.178Z,8.93
2022-09-21T08:15:49.474Z,8.98
2022-09-21T08:18:19.746Z,9.07
2022-09-21T08:20:55.700Z,9.33
2022-09-21T08:23:26.354Z,9.02
2022-09-21T08:25:54.818Z,9.13
2022-09-21T08:28:23.239Z,8.85
2022-09-21T08:30:51.729Z,8.88
2022-09-21T08:33:24.835Z,9.07
2022-09-21T08:35:55.417Z,8.87
2022-09-21T08:38:23.596Z,8.20
2022-09-21T08:40:53.044Z,8.27
2022-09-21T08:43:29.101Z,7.60
2022-09-21T08:45:57.472Z,8.23
2022-09-21T08:48:35.802Z,8.15
2022-09-21T08:51:08.072Z,8.65
2022-09-21T08:53:37.799Z,8.50
2022-09-21T08:56:06.229Z,8.27
2022-09-21T08:58:34.079Z,9.23
2022-09-21T09:01:15.815Z,7.85
2022-09-21T09:03:55.576Z,8.23
2022-09-21T09:06:30.716Z,7.38
2022-09-21T09:09:26.189Z,7.80
2022-09-21T09:12:10.907Z,7.88
2022-09-21T09:15:11.626Z,8.77
2022-09-21T09:17:49.078Z,8.20
2022-09-21T09:20:21.215Z,7.93
2022-09-21T09:22:51.624Z,8.70
2022-09-21T09:25:22.405Z,8.07
2022-09-21T09:27:52.870Z,7.38
2022-09-21T09:31:22.164Z,7.30
2022-09-21T09:33:54.697Z,8.15
2022-09-21T09:36:53.845Z,8.20
2022-09-21T09:39:16.152Z,7.60
2022-09-21T09:41:59.183Z,7.03
2022-09-21T09:44:39.283Z,7.45
2022-09-21T09:47:13.859Z,6.82
2022-09-21T09:49:50.105Z,6.40
2022-09-21T09:52:20.674Z,6.40
2022-09-21T09:54:48.782Z,6.38
2022-09-21T09:57:17.120Z,6.10
2022-09-21T09:59:53.341Z,6.40
2022-09-21T10:02:24.374Z,6.45
2022-09-21T10:05:03.517Z,6.15
2022-09-21T10:07:37.362Z,5.80
2022-09-21T10:10:24.050Z,5.70
2022-09-21T10:12:52.648Z,5.00
2022-09-21T10:15:21.832Z,4.93
2022-09-21T10:17:50.169Z,4.38
2022-09-21T10:20:20.300Z,4.05
2022-09-21T10:22:55.039Z,3.92
2022-09-21T10:25:22.988Z,3.50
2022-09-21T10:27:52.183Z,3.45
2022-09-21T10:30:34.145Z,2.92
2022-09-21T10:33:03.313Z,3.53
2022-09-21T10:35:31.104Z,3.38
2022-09-21T10:38:21.149Z,3.33
2022-09-21T10:40:50.357Z,2.63
2022-09-21T10:43:27.255Z,3.13
2022-09-21T10:45:56.679Z,1.90
2022-09-21T10:48:25.522Z,2.20
2022-09-21T10:50:54.999Z,2.10
2022-09-21T10:53:28.668Z,2.60
2022-09-21T10:56:14.998Z,2.00
2022-09-21T10:59:12.763Z,2.53
2022-09-21T11:01:45.602Z,1.80
2022-09-21T11:04:17.256Z,2.05
2022-09-21T11:06:47.055Z,1.60
2022-09-21T11:09:18.433Z,1.80
2022-09-21T11:11:53.292Z,1.70
2022-09-21T11:14:30.845Z,2.08
2022-09-21T11:17:01.771Z,1.70
2022-09-21T11:19:34.871Z,1.90
2022-09-21T11:22:08.756Z,1.95
2022-09-21T11:24:47.298Z,2.10
2022-09-21T11:27:16.700Z,1.87
2022-09-21T11:29:51.534Z,2.20
2022-09-21T11:32:37.828Z,2.00
2022-09-21T11:35:20.078Z,1.92
2022-09-21T11:38:06.340Z,2.13
2022-09-21T11:40:45.475Z,2.55
2022-09-21T11:43:24.155Z,2.80
2022-09-21T11:45:59.472Z,2.60
2022-09-21T11:48:38.571Z,2.30
2022-09-21T11:52:08.551Z,1.90
2022-09-21T11:54:58.678Z,2.03
2022-09-21T11:57:29.452Z,2.35
2022-09-21T12:00:15.615Z,1.80
2022-09-21T12:03:25.931Z,1.85
2022-09-21T12:06:05.335Z,1.75
2022-09-21T12:08:46.386Z,1.50
2022-09-21T12:11:21.203Z,1.50
2022-09-21T12:14:00.087Z,1.85
2022-09-21T12:16:34.283Z,1.48
2022-09-21T12:19:13.591Z,1.40
2022-09-21T12:21:45.606Z,1.52
2022-09-21T12:24:16.516Z,1.45
2022-09-21T12:26:47.344Z,1.20
2022-09-21T12:29:25.478Z,1.63
2022-09-21T12:32:00.807Z,1.85
2022-09-21T12:34:31.991Z,1.10
2022-09-21T12:37:06.637Z,1.50
2022-09-21T12:39:40.438Z,1.15
2022-09-21T12:42:27.078Z,1.27
2022-09-21T12:45:59.535Z,1.48
2022-09-21T12:48:34.491Z,0.93
2022-09-21T12:51:06.424Z,1.23
2022-09-21T12:53:37.729Z,1.35
2022-09-21T12:56:10.195Z,1.17
2022-09-21T12:58:55.349Z,1.20
2022-09-21T13:01:30.991Z,1.40
2022-09-21T13:04:14.138Z,1.08
2022-09-21T13:06:58.602Z,1.00
2022-09-21T13:09:27.100Z,1.00
2022-09-21T13:11:57.779Z,1.05
2022-09-21T13:14:26.769Z,0.82
2022-09-21T13:16:57.620Z,0.80
2022-09-21T13:19:29.775Z,1.00
2022-09-21T13:22:21.575Z,0.85
2022-09-21T13:25:01.620Z,1.03
2022-09-21T13:28:00.564Z,1.08
2022-09-21T13:30:35.750Z,0.93
2022-09-21T13:33:05.219Z,1.00
2022-09-21T13:36:10.712Z,0.80
2022-09-21T13:39:14.419Z,1.00
2022-09-21T13:42:03.210Z,1.08
2022-09-21T13:44:42.602Z,0.88
2022-09-21T13:47:11.436Z,1.13
2022-09-21T13:49:50.957Z,0.90
2022-09-21T13:52:35.588Z,0.80
2022-09-21T13:55:05.603Z,1.02
2022-09-21T13:57:38.144Z,0.90
2022-09-21T14:00:37.859Z,0.80
2022-09-21T14:03:08.155Z,0.80
2022-09-21T14:05:40.696Z,1.10
2022-09-21T14:08:28.177Z,0.80
2022-09-21T14:10:59.147Z,0.70
2022-09-21T14:13:31.323Z,0.80
2022-09-21T14:16:27.605Z,0.88
2022-09-21T14:18:55.443Z,0.73
2022-09-21T14:21:24.085Z,0.75
2022-09-21T14:24:27.154Z,0.80
2022-09-21T14:27:09.725Z,0.80
2022-09-21T14:29:45.863Z,0.93
2022-09-21T14:32:23.529Z,0.80
2022-09-21T14:34:56.500Z,0.60
2022-09-21T14:37:32.584Z,0.80
2022-09-21T14:40:05.850Z,0.63
2022-09-21T14:42:35.031Z,0.70
2022-09-21T14:45:04.331Z,0.60
2022-09-21T14:47:46.252Z,0.50
2022-09-21T14:50:32.731Z,0.90
2022-09-21T14:53:10.049Z,0.65
2022-09-21T14:55:56.660Z,0.60
2022-09-21T14:58:36.051Z,0.70
2022-09-21T15:01:22.175Z,0.80
2022-09-21T15:04:10.538Z,1.27
2022-09-21T15:06:59.096Z,0.80
2022-09-21T15:10:02.652Z,0.77
2022-09-21T15:12:38.791Z,0.65
2022-09-21T15:15:22.099Z,0.80
2022-09-21T15:18:03.826Z,0.63
2022-09-21T15:20:33.312Z,0.80
2022-09-21T15:23:02.247Z,0.90
2022-09-21T15:25:33.399Z,0.70
2022-09-21T15:28:04.292Z,0.82
2022-09-21T15:30:34.424Z,0.85
2022-09-21T15:33:03.178Z,0.90
2022-09-21T15:35:33.238Z,0.63
2022-09-21T15:38:28.114Z,0.83
2022-09-21T15:41:01.426Z,0.50
2022-09-21T15:43:34.424Z,0.83
2022-09-21T15:46:04.578Z,0.80
2022-09-21T15:48:39.419Z,0.65
2022-09-21T15:51:13.068Z,0.70
2022-09-21T15:53:45.266Z,0.60
2022-09-21T15:56:19.389Z,0.60
2022-09-21T15:58:53.746Z,0.60
2022-09-21T16:01:23.772Z,0.55
2022-09-21T16:04:05.137Z,0.82
2022-09-21T16:06:38.435Z,0.70
2022-09-21T16:09:42.687Z,0.77
2022-09-21T16:12:41.710Z,0.90
2022-09-21T16:15:17.843Z,0.70
2022-09-21T16:18:01.586Z,0.47
2022-09-21T16:20:41.732Z,0.70
2022-09-21T16:23:14.828Z,0.60
2022-09-21T16:25:47.196Z,0.75
2022-09-21T16:28:36.316Z,0.80
2022-09-21T16:31:25.376Z,0.82
2022-09-21T16:34:05.791Z,0.50
2022-09-21T16:36:43.551Z,0.68
2022-09-21T16:39:15.568Z,0.70
2022-09-21T16:41:47.591Z,0.68
2022-09-21T16:44:21.046Z,0.80
2022-09-21T16:46:53.946Z,0.98
2022-09-21T16:49:25.747Z,0.65
2022-09-21T16:51:55.935Z,0.70
2022-09-21T16:54:25.170Z,0.75
2022-09-21T16:56:55.110Z,0.85
2022-09-21T16:59:23.058Z,0.65
2022-09-21T17:01:57.809Z,0.77
2022-09-21T17:04:27.234Z,0.60
2022-09-21T17:06:56.354Z,0.80
2022-09-21T17:09:29.907Z,0.68
2022-09-21T17:11:59.449Z,0.68
2022-09-21T17:14:27.211Z,0.88
2022-09-21T17:16:58.766Z,1.00
2022-09-21T17:19:28.068Z,0.80
2022-09-21T17:21:55.753Z,0.80
2022-09-21T17:24:48.795Z,0.52
2022-09-21T17:27:12.283Z,0.75
2022-09-21T17:29:47.234Z,0.77
2022-09-21T17:32:20.549Z,1.08
2022-09-21T17:34:50.498Z,0.80
2022-09-21T17:37:18.141Z,0.70
2022-09-21T17:39:46.239Z,0.82
2022-09-21T17:42:17.967Z,0.90
2022-09-21T17:45:01.585Z,0.90
2022-09-21T17:47:33.856Z,1.08
2022-09-21T17:50:10.035Z,1.17
2022-09-21T17:52:55.850Z,0.80
2022-09-21T17:55:24.190Z,1.15
2022-09-21T18:03:44.691Z,1.40
2022-09-21T18:06:13.847Z,1.42
2022-09-21T18:08:42.350Z,1.35
2022-09-21T18:11:33.143Z,1.60
2022-09-21T18:14:08.297Z,1.30
2022-09-21T18:16:47.416Z,1.55
2022-09-21T18:19:30.930Z,1.60
2022-09-21T18:22:04.696Z,1.23
2022-09-21T18:24:32.905Z,1.40
2022-09-21T18:27:02.227Z,1.42
2022-09-21T18:29:41.128Z,1.50
2022-09-21T18:32:25.690Z,1.20
2022-09-21T18:35:13.859Z,1.10
2022-09-21T18:37:48.635Z,1.70
2022-09-21T18:40:22.342Z,1.58
2022-09-21T18:42:55.879Z,1.60
2022-09-21T18:45:28.927Z,1.20
2022-09-21T18:48:17.474Z,1.65
2022-09-21T18:50:50.828Z,1.55
2022-09-21T18:53:28.121Z,1.42
2022-09-21T18:55:57.062Z,2.10
2022-09-21T18:58:25.455Z,2.00
2022-09-21T19:00:53.845Z,2.35
2022-09-21T19:03:22.233Z,2.25
2022-09-21T19:06:13.005Z,1.80
2022-09-21T19:08:46.254Z,2.00
2022-09-21T19:11:22.246Z,2.40
2022-09-21T19:13:56.076Z,2.17
2022-09-21T19:16:29.281Z,1.40
2022-09-21T19:19:06.662Z,2.20
2022-09-21T19:21:41.802Z,2.55
2022-09-21T19:24:19.831Z,2.10
2022-09-21T19:27:03.341Z,2.10
2022-09-21T19:29:42.835Z,2.10
2022-09-21T19:32:17.439Z,2.50
2022-09-21T19:34:45.945Z,1.92
2022-09-21T19:37:15.384Z,2.08
2022-09-21T19:39:44.524Z,2.67
2022-09-21T19:42:21.211Z,2.90
2022-09-21T19:44:59.153Z,2.35
2022-09-21T19:47:30.513Z,2.10
2022-09-21T19:50:04.108Z,2.50
2022-09-21T19:52:36.579Z,2.50
2022-09-21T19:55:23.152Z,2.20
2022-09-21T19:58:09.257Z,2.03
2022-09-21T20:00:38.427Z,2.15
2022-09-21T20:03:14.235Z,2.30
2022-09-21T20:05:49.378Z,2.10
2022-09-21T20:08:26.484Z,2.28
2022-09-21T20:11:08.062Z,2.40
2022-09-21T20:14:07.306Z,2.13
2022-09-21T20:16:43.744Z,1.90
2022-09-21T20:19:19.376Z,2.10
2022-09-21T20:21:53.286Z,2.40
2022-09-21T20:24:32.061Z,1.90
2022-09-21T20:27:00.324Z,2.10
2022-09-21T20:29:28.300Z,1.63
2022-09-21T20:31:56.510Z,1.58
2022-09-21T20:34:24.432Z,2.17
2022-09-21T20:36:52.306Z,2.00
2022-09-21T20:39:20.235Z,1.77
2022-09-21T20:41:49.765Z,1.95
2022-09-21T20:44:17.641Z,1.93
2022-09-21T20:46:45.179Z,2.00
2022-09-21T20:49:15.244Z,1.80
2022-09-21T20:51:43.040Z,2.08
2022-09-21T20:54:11.444Z,1.90
2022-09-21T20:56:39.499Z,1.90
2022-09-21T20:59:09.481Z,2.22
2022-09-21T21:01:37.261Z,2.00
2022-09-21T21:04:05.336Z,2.03
2022-09-21T21:06:35.147Z,2.15
2022-09-21T21:09:02.778Z,2.25
2022-09-21T21:11:31.486Z,2.20
2022-09-21T21:13:59.332Z,2.55
2022-09-21T21:16:28.448Z,2.47
2022-09-21T21:18:56.398Z,2.80
2022-09-21T21:21:25.555Z,3.05
2022-09-21T21:24:10.912Z,3.28
2022-09-21T21:27:00.671Z,2.90
2022-09-21T21:29:26.605Z,3.10
2022-09-21T21:32:00.186Z,3.60
2022-09-21T21:34:28.192Z,4.00
2022-09-21T21:36:55.970Z,3.78
2022-09-21T21:39:23.591Z,3.63
2022-09-21T21:41:51.261Z,3.47
2022-09-21T21:44:18.886Z,3.25
2022-09-21T21:46:46.489Z,3.50
2022-09-21T21:49:16.138Z,3.72
2022-09-21T21:51:44.752Z,3.77
2022-09-21T21:54:13.336Z,3.25
2022-09-21T21:56:41.607Z,3.25
2022-09-21T21:59:11.318Z,3.63
2022-09-21T22:01:41.535Z,3.10
2022-09-21T22:04:09.608Z,3.40
2022-09-21T22:06:40.308Z,3.70
2022-09-21T22:09:10.394Z,3.60
2022-09-21T22:11:39.148Z,3.70
2022-09-21T22:14:08.341Z,3.58
2022-09-21T22:16:37.866Z,3.45
2022-09-21T22:19:07.143Z,3.58
2022-09-21T22:21:36.253Z,3.90
2022-09-21T22:24:07.109Z,4.15
2022-09-21T22:26:39.135Z,4.03
2022-09-21T22:29:08.972Z,3.63
2022-09-21T22:31:38.819Z,3.92
2022-09-21T22:34:07.739Z,4.30
2022-09-21T22:36:37.006Z,4.40
2022-09-21T22:39:07.452Z,4.88
2022-09-21T22:41:36.848Z,4.97
2022-09-21T22:44:04.791Z,4.65
2022-09-21T22:46:33.370Z,5.57
2022-09-21T22:49:01.907Z,5.78
2022-09-21T22:51:30.222Z,5.30
2022-09-21T22:53:58.014Z,5.53
2022-09-21T22:56:29.121Z,5.60
2022-09-21T22:58:58.281Z,6.78
2022-09-21T23:01:27.723Z,6.07
2022-09-21T23:03:58.421Z,6.90
2022-09-21T23:06:28.111Z,6.63
2022-09-21T23:08:59.400Z,6.65
2022-09-21T23:11:32.104Z,6.47
2022-09-21T23:14:01.112Z,6.15
2022-09-21T23:16:30.254Z,6.70
2022-09-21T23:19:00.018Z,6.75
2022-09-21T23:21:28.867Z,5.72
2022-09-21T23:24:00.244Z,5.53
2022-09-21T23:26:31.328Z,6.53
2022-09-21T23:29:00.627Z,6.40
2022-09-21T23:31:28.742Z,6.60
2022-09-21T23:33:58.295Z,7.32
2022-09-21T23:36:27.691Z,7.00
2022-09-21T23:38:55.824Z,7.18
2022-09-21T23:41:24.907Z,7.75
2022-09-21T23:43:54.775Z,7.75
2022-09-21T23:46:24.734Z,7.20
2022-09-21T23:48:52.852Z,7.60
2022-09-21T23:51:21.156Z,7.72
2022-09-21T23:53:48.944Z,7.35
2022-09-21T23:56:18.488Z,7.53
2022-09-21T23:58:46.795Z,7.10
